Time;durP1;ratioP1;P1;durP2;ratioP2;P2;SDS_P1;SDS_P2;PMS_P1;PMS_P2;Temp;Humidity;BMP_temperature;BMP_pressure;BME280_temperature;BME280_humidity;BME280_pressure;Samples;Min_cycle;Max_cycle;Signal;HPM_P1;HPM_P2
2023/08/28 00:01:12;;;;;;;2.92;2.40;;;30.00;48.20;;;;;;5051013;28;20032;-68
2023/08/28 00:03:38;;;;;;;3.20;2.83;;;30.10;48.30;;;;;;5050952;28;20033;-68
2023/08/28 00:06:04;;;;;;;3.08;2.33;;;30.00;48.30;;;;;;5050633;28;20037;-68
2023/08/28 00:08:30;;;;;;;3.97;3.00;;;30.10;48.30;;;;;;5051106;28;20428;-68
2023/08/28 00:10:56;;;;;;;3.80;2.50;;;30.00;48.40;;;;;;5049827;28;20133;-68
2023/08/28 00:13:22;;;;;;;4.13;2.20;;;30.00;48.40;;;;;;5051091;28;20119;-68
2023/08/28 00:15:48;;;;;;;2.90;2.50;;;30.00;48.40;;;;;;5051079;28;20100;-68
2023/08/28 00:18:14;;;;;;;3.28;2.35;;;30.00;48.40;;;;;;5050958;28;20065;-68
2023/08/28 00:20:40;;;;;;;5.05;2.50;;;30.10;48.50;;;;;;5054638;28;20071;-67
2023/08/28 00:23:06;;;;;;;3.22;2.53;;;30.20;48.50;;;;;;5071136;28;20020;-68
2023/08/28 00:25:32;;;;;;;5.18;2.70;;;30.00;48.50;;;;;;5060698;28;20048;-67
2023/08/28 00:27:58;;;;;;;4.18;2.40;;;30.10;48.60;;;;;;5050940;28;20037;-68
2023/08/28 00:30:24;;;;;;;5.55;2.92;;;29.90;48.00;;;;;;5049724;28;20032;-68
2023/08/28 00:32:50;;;;;;;3.40;2.53;;;30.10;48.60;;;;;;5068137;28;20060;-68
2023/08/28 00:35:16;;;;;;;5.95;2.88;;;30.10;48.60;;;;;;5068361;28;20056;-68
2023/08/28 00:37:42;;;;;;;2.92;2.67;;;29.80;47.70;;;;;;5051915;28;20072;-67
2023/08/28 00:40:13;;;;;;;3.80;2.47;;;30.00;48.60;;;;;;5051470;28;20679;-68
2023/08/28 00:42:39;;;;;;;3.38;2.67;;;30.10;48.80;;;;;;5051430;28;20048;-68
2023/08/28 00:45:05;;;;;;;2.90;2.60;;;29.90;48.30;;;;;;5068343;28;20226;-68
2023/08/28 00:47:31;;;;;;;3.60;2.88;;;30.00;48.90;;;;;;5067865;28;20044;-68
2023/08/28 00:49:57;;;;;;;3.72;2.50;;;29.90;48.30;;;;;;5070181;28;20056;-68
2023/08/28 00:52:25;;;;;;;2.80;2.38;;;30.00;49.00;;;;;;5054922;28;20135;-68
2023/08/28 00:54:52;;;;;;;3.60;2.40;;;29.90;48.40;;;;;;5071198;28;20040;-68
2023/08/28 00:57:18;;;;;;;4.57;2.92;;;29.90;48.40;;;;;;5038060;28;20055;-68
2023/08/28 00:59:46;;;;;;;4.35;2.40;;;29.90;48.50;;;;;;5071441;28;20047;-68
2023/08/28 01:02:12;;;;;;;3.70;2.72;;;30.00;49.10;;;;;;5071477;28;20638;-68
2023/08/28 01:04:38;;;;;;;2.97;2.67;;;30.00;49.10;;;;;;5056878;28;20116;-68
2023/08/28 01:07:15;;;;;;;4.38;2.88;;;29.90;48.60;;;;;;5052531;28;20133;-68
2023/08/28 01:10:08;;;;;;;3.88;2.70;;;30.10;49.20;;;;;;5052427;28;20052;-68
2023/08/28 01:12:54;;;;;;;3.65;2.38;;;30.00;49.20;;;;;;5054187;28;20037;-67
2023/08/28 01:15:23;;;;;;;3.10;2.80;;;29.90;48.70;;;;;;5031582;28;20123;-68
2023/08/28 01:17:55;;;;;;;3.10;2.78;;;30.00;49.20;;;;;;5031674;28;20426;-68
2023/08/28 01:20:25;;;;;;;2.33;2.08;;;30.00;49.30;;;;;;5014057;28;20076;-68
2023/08/28 01:22:57;;;;;;;5.15;2.40;;;30.00;49.40;;;;;;5021686;28;20040;-67
2023/08/28 01:25:24;;;;;;;2.95;2.50;;;29.90;48.80;;;;;;4995226;28;20034;-68
2023/08/28 01:27:52;;;;;;;3.90;2.75;;;30.00;49.40;;;;;;4995407;28;20096;-68
2023/08/28 01:30:21;;;;;;;2.55;2.28;;;30.00;49.40;;;;;;4995373;28;20092;-68
2023/08/28 01:32:47;;;;;;;2.58;2.38;;;30.10;49.40;;;;;;4995268;28;20564;-67
2023/08/28 01:35:20;;;;;;;6.65;2.90;;;30.00;49.40;;;;;;4995566;28;20073;-68
2023/08/28 01:38:04;;;;;;;9.57;2.78;;;30.00;49.40;;;;;;4995199;28;20498;-68
2023/08/28 01:40:38;;;;;;;3.45;3.00;;;29.90;48.80;;;;;;4994917;28;20129;-68
2023/08/28 01:43:08;;;;;;;5.80;2.97;;;30.00;49.40;;;;;;5011537;28;20041;-68
2023/08/28 01:45:37;;;;;;;4.60;2.50;;;30.10;49.50;;;;;;4995021;28;20046;-68
2023/08/28 01:48:04;;;;;;;3.00;2.60;;;29.90;48.80;;;;;;4994977;28;20141;-68
2023/08/28 01:50:32;;;;;;;3.42;2.45;;;29.90;49.00;;;;;;5011105;28;20129;-68
2023/08/28 01:52:58;;;;;;;3.42;2.97;;;29.90;49.10;;;;;;5026838;28;20413;-68
2023/08/28 01:55:56;;;;;;;3.70;2.88;;;30.10;49.70;;;;;;5037908;28;20037;-68
2023/08/28 01:58:22;;;;;;;5.15;2.72;;;29.90;49.10;;;;;;4994723;28;20112;-68
2023/08/28 02:00:50;;;;;;;4.07;2.35;;;30.00;49.70;;;;;;4994217;28;20053;-68
2023/08/28 02:03:15;;;;;;;2.53;2.33;;;30.00;49.70;;;;;;4994831;28;20034;-68
2023/08/28 02:05:41;;;;;;;4.05;3.35;;;29.90;49.20;;;;;;4994734;28;20034;-68
2023/08/28 02:08:07;;;;;;;4.22;2.38;;;29.90;49.20;;;;;;4994437;28;20141;-68
2023/08/28 02:10:33;;;;;;;2.30;2.10;;;29.90;49.20;;;;;;4994486;28;20049;-68
2023/08/28 02:12:59;;;;;;;2.88;2.33;;;29.90;49.20;;;;;;4994465;28;20038;-68
2023/08/28 02:15:26;;;;;;;2.83;2.50;;;29.90;49.30;;;;;;4994647;28;20137;-68
2023/08/28 02:17:54;;;;;;;3.20;2.67;;;30.10;49.90;;;;;;5010772;28;20084;-68
2023/08/28 02:20:20;;;;;;;2.65;2.45;;;29.90;49.30;;;;;;5006952;28;20091;-68
2023/08/28 02:22:46;;;;;;;5.30;2.72;;;30.00;49.90;;;;;;4990105;28;20133;-68
2023/08/28 02:25:12;;;;;;;2.88;2.38;;;30.00;49.90;;;;;;4971533;28;20443;-68
2023/08/28 02:27:38;;;;;;;4.32;2.83;;;29.90;49.30;;;;;;4971450;28;20051;-68
2023/08/28 02:30:05;;;;;;;4.07;2.70;;;30.10;49.90;;;;;;4955256;28;20146;-68
2023/08/28 02:32:31;;;;;;;5.30;2.60;;;30.00;49.90;;;;;;4955449;28;20101;-68
2023/08/28 02:34:59;;;;;;;3.60;2.90;;;30.00;49.90;;;;;;4992050;28;20071;-68
2023/08/28 02:37:25;;;;;;;2.95;2.70;;;30.00;49.90;;;;;;5033551;28;20064;-68
2023/08/28 02:39:51;;;;;;;5.30;3.22;;;29.90;49.30;;;;;;5033254;28;20060;-68
2023/08/28 02:42:17;;;;;;;3.20;2.90;;;29.90;49.40;;;;;;5033191;28;20033;-68
2023/08/28 02:44:43;;;;;;;2.78;2.58;;;30.00;49.90;;;;;;5033283;28;20447;-68
2023/08/28 02:47:09;;;;;;;6.35;2.67;;;29.90;49.40;;;;;;5033210;28;20056;-68
2023/08/28 02:49:35;;;;;;;4.40;2.90;;;29.90;49.40;;;;;;5049745;28;20037;-68
2023/08/28 02:52:01;;;;;;;3.20;2.90;;;29.90;49.40;;;;;;5031251;28;20045;-68
2023/08/28 02:54:27;;;;;;;5.30;2.92;;;30.00;50.10;;;;;;5013346;28;20036;-68
2023/08/28 02:56:53;;;;;;;2.53;2.22;;;30.00;50.10;;;;;;5043008;28;20058;-68
2023/08/28 02:59:19;;;;;;;2.63;2.42;;;30.10;50.20;;;;;;5032371;28;20045;-68
2023/08/28 03:01:45;;;;;;;8.15;3.33;;;29.90;49.60;;;;;;5030964;28;20147;-68
2023/08/28 03:04:11;;;;;;;4.03;2.63;;;29.90;49.60;;;;;;5031979;28;20041;-68
2023/08/28 03:06:37;;;;;;;5.03;3.20;;;29.90;49.60;;;;;;5030928;28;20034;-68
2023/08/28 03:09:12;;;;;;;5.63;3.10;;;30.00;50.20;;;;;;5032090;28;20048;-68
2023/08/28 03:11:38;;;;;;;6.40;3.65;;;30.00;50.20;;;;;;5045273;28;20462;-68
2023/08/28 03:14:04;;;;;;;5.75;3.22;;;30.00;50.20;;;;;;5030930;28;20038;-68
2023/08/28 03:16:31;;;;;;;3.72;2.83;;;29.80;49.70;;;;;;5031989;28;20458;-68
2023/08/28 03:18:57;;;;;;;5.78;2.58;;;30.00;50.30;;;;;;5031800;28;20041;-68
2023/08/28 03:21:23;;;;;;;4.65;2.90;;;29.90;49.70;;;;;;5043735;28;20098;-67
2023/08/28 03:23:49;;;;;;;5.43;2.70;;;29.90;49.70;;;;;;5051685;28;20068;-67
2023/08/28 03:26:15;;;;;;;5.80;3.45;;;30.00;50.30;;;;;;5050779;28;20037;-67
2023/08/28 03:28:41;;;;;;;4.65;2.83;;;30.00;50.30;;;;;;5050481;28;20032;-68
2023/08/28 03:31:07;;;;;;;2.42;2.25;;;30.10;50.30;;;;;;5050254;28;20037;-68
2023/08/28 03:33:35;;;;;;;2.13;1.92;;;29.80;49.70;;;;;;5050351;28;20139;-68
2023/08/28 03:36:03;;;;;;;3.53;2.70;;;30.00;50.30;;;;;;5051511;28;20022;-68
2023/08/28 03:38:29;;;;;;;3.20;2.70;;;30.00;50.30;;;;;;5051374;28;20029;-67
2023/08/28 03:40:55;;;;;;;3.05;2.75;;;29.90;49.80;;;;;;5049032;28;20101;-68
2023/08/28 03:43:21;;;;;;;2.45;2.17;;;29.90;49.80;;;;;;5028792;28;20050;-67
2023/08/28 03:45:47;;;;;;;2.10;2.00;;;30.00;50.30;;;;;;5029130;28;20559;-68
2023/08/28 03:48:13;;;;;;;2.25;1.88;;;29.90;49.80;;;;;;5028718;28;20373;-68
2023/08/28 03:50:39;;;;;;;5.43;2.80;;;29.80;49.80;;;;;;5030840;28;20037;-69
2023/08/28 03:53:05;;;;;;;2.58;1.83;;;29.80;49.80;;;;;;5012189;28;20182;-68
2023/08/28 03:55:31;;;;;;;2.70;2.25;;;29.80;49.80;;;;;;5028562;28;20615;-68
2023/08/28 03:58:02;;;;;;;2.00;1.90;;;29.80;49.90;;;;;;5012293;28;20124;-68
2023/08/28 04:00:28;;;;;;;2.72;2.33;;;29.90;50.00;;;;;;5012284;28;20044;-69
2023/08/28 04:02:54;;;;;;;3.33;2.63;;;29.90;49.70;;;;;;5012124;28;20050;-69
2023/08/28 04:05:23;;;;;;;2.95;2.72;;;29.80;49.40;;;;;;5028969;28;20041;-69
2023/08/28 04:07:50;;;;;;;6.85;3.33;;;29.80;48.90;;;;;;5012280;28;20068;-69
2023/08/28 04:10:16;;;;;;;3.55;2.90;;;29.90;48.40;;;;;;5006757;28;20169;-69
2023/08/28 04:12:42;;;;;;;4.55;2.70;;;29.90;47.70;;;;;;4988840;28;20125;-69
2023/08/28 04:15:09;;;;;;;5.07;3.08;;;29.90;47.40;;;;;;5005338;28;20052;-67
2023/08/28 04:17:36;;;;;;;4.22;3.03;;;29.90;47.60;;;;;;5012134;28;20046;-68
2023/08/28 04:20:14;;;;;;;4.55;3.15;;;30.60;50.40;;;;;;5032615;28;20131;-68
2023/08/28 04:22:43;;;;;;;6.25;3.55;;;31.00;52.50;;;;;;5031469;28;20455;-68
2023/08/28 04:25:11;;;;;;;6.55;3.33;;;31.10;51.90;;;;;;5036078;28;20059;-67
2023/08/28 04:27:38;;;;;;;5.53;3.70;;;30.90;49.20;;;;;;5002678;28;20397;-67
2023/08/28 04:30:06;;;;;;;5.75;3.63;;;30.80;48.40;;;;;;5052449;28;20037;-67
2023/08/28 04:32:32;;;;;;;4.05;2.95;;;30.60;48.10;;;;;;5035642;28;20148;-67
2023/08/28 04:34:58;;;;;;;3.53;3.13;;;30.40;48.10;;;;;;5034833;28;20037;-67
2023/08/28 04:37:25;;;;;;;3.17;2.95;;;30.40;48.50;;;;;;5015675;28;20050;-68
2023/08/28 04:39:51;;;;;;;4.30;3.03;;;30.50;48.60;;;;;;5032387;28;20053;-68
2023/08/28 04:42:18;;;;;;;4.45;3.05;;;30.50;48.60;;;;;;5048859;28;20045;-67
2023/08/28 04:44:45;;;;;;;5.00;2.85;;;30.30;48.80;;;;;;5034057;28;20052;-67
2023/08/28 04:47:13;;;;;;;3.72;3.13;;;30.30;49.00;;;;;;5051691;28;20164;-67
2023/08/28 04:49:39;;;;;;;5.10;3.53;;;30.30;49.20;;;;;;5037959;28;20040;-67
2023/08/28 04:52:06;;;;;;;5.78;3.33;;;30.40;49.50;;;;;;5038396;28;20043;-68
2023/08/28 04:54:33;;;;;;;3.63;3.30;;;30.40;49.60;;;;;;5035987;28;20497;-67
2023/08/28 04:56:59;;;;;;;6.50;3.33;;;30.30;49.70;;;;;;5033283;28;20026;-69
2023/08/28 04:59:25;;;;;;;3.50;2.85;;;30.30;49.70;;;;;;5033321;28;20044;-68
2023/08/28 05:01:51;;;;;;;7.05;3.22;;;30.40;49.60;;;;;;5033055;28;20692;-68
2023/08/28 05:04:18;;;;;;;5.30;3.08;;;30.30;48.80;;;;;;5033433;28;20394;-69
2023/08/28 05:06:44;;;;;;;8.32;3.58;;;30.30;47.80;;;;;;5031779;28;20060;-69
2023/08/28 05:09:10;;;;;;;4.68;3.15;;;30.40;47.20;;;;;;5031424;28;20556;-67
2023/08/28 05:11:37;;;;;;;5.28;3.53;;;30.30;46.80;;;;;;5015180;28;20045;-67
2023/08/28 05:14:03;;;;;;;4.20;3.03;;;30.20;46.90;;;;;;5031817;28;20061;-67
2023/08/28 05:16:29;;;;;;;8.25;3.47;;;30.20;45.80;;;;;;5015047;28;20068;-67
2023/08/28 05:18:55;;;;;;;9.27;3.17;;;30.20;45.50;;;;;;5015234;28;20041;-67
2023/08/28 05:21:21;;;;;;;4.38;3.10;;;30.20;45.60;;;;;;5031100;28;20506;-68
2023/08/28 05:23:47;;;;;;;8.98;4.05;;;30.20;45.50;;;;;;5031393;28;20124;-66
2023/08/28 05:26:13;;;;;;;5.88;3.42;;;30.30;45.20;;;;;;5014818;28;20068;-67
2023/08/28 05:28:40;;;;;;;7.38;3.08;;;30.20;47.00;;;;;;5015105;28;20711;-67
2023/08/28 05:31:06;;;;;;;3.92;2.90;;;30.20;45.90;;;;;;5014814;28;20130;-67
2023/08/28 05:33:33;;;;;;;6.97;3.85;;;30.20;46.80;;;;;;5031156;28;20164;-66
2023/08/28 05:35:59;;;;;;;4.82;3.20;;;30.20;47.00;;;;;;5013866;28;20041;-67
2023/08/28 05:38:25;;;;;;;5.97;3.45;;;30.20;47.10;;;;;;5032190;28;20050;-66
2023/08/28 05:40:51;;;;;;;4.68;2.90;;;30.30;47.00;;;;;;5032605;28;20042;-66
2023/08/28 05:43:17;;;;;;;14.73;3.65;;;30.30;46.40;;;;;;5033446;28;20048;-66
2023/08/28 05:45:46;;;;;;;6.10;3.72;;;30.30;47.60;;;;;;5032212;28;20025;-67
2023/08/28 05:48:12;;;;;;;5.45;3.45;;;30.40;46.30;;;;;;5047088;28;20106;-68
2023/08/28 05:50:39;;;;;;;6.68;3.30;;;30.40;46.40;;;;;;5055353;28;20060;-68
2023/08/28 05:53:08;;;;;;;5.75;3.70;;;30.30;46.60;;;;;;5053277;28;20068;-69
2023/08/28 05:55:35;;;;;;;6.07;3.60;;;30.50;47.80;;;;;;5060482;28;20032;-68
2023/08/28 05:58:01;;;;;;;9.02;3.55;;;30.30;47.80;;;;;;5071865;28;20044;-68
2023/08/28 06:00:28;;;;;;;4.20;3.40;;;30.40;47.40;;;;;;5070840;28;20041;-68
2023/08/28 06:02:54;;;;;;;7.60;3.78;;;30.40;47.10;;;;;;5071930;28;20483;-68
2023/08/28 06:05:21;;;;;;;4.05;3.22;;;30.40;48.20;;;;;;5054028;28;20082;-68
2023/08/28 06:07:47;;;;;;;6.43;3.45;;;30.40;47.40;;;;;;5053105;28;20056;-67
2023/08/28 06:10:17;;;;;;;6.10;3.75;;;30.40;47.20;;;;;;5042935;28;20036;-68
2023/08/28 06:12:48;;;;;;;7.28;3.67;;;30.30;47.00;;;;;;5072975;28;20024;-68
2023/08/28 06:15:18;;;;;;;9.18;4.38;;;30.40;46.90;;;;;;5072820;28;20067;-68
2023/08/28 06:17:46;;;;;;;3.75;3.10;;;30.50;46.80;;;;;;5072811;28;20072;-68
2023/08/28 06:20:13;;;;;;;8.30;3.40;;;30.40;47.20;;;;;;5062317;28;20130;-69
2023/08/28 06:22:42;;;;;;;5.50;3.78;;;30.40;47.00;;;;;;5056990;28;20120;-70
2023/08/28 06:25:08;;;;;;;7.45;3.72;;;30.40;47.20;;;;;;5052706;28;20037;-69
2023/08/28 06:27:34;;;;;;;6.45;3.97;;;30.50;47.40;;;;;;5052507;28;20037;-69
2023/08/28 06:30:03;;;;;;;7.32;4.38;;;30.30;48.60;;;;;;5052799;28;20119;-68
2023/08/28 06:32:30;;;;;;;5.63;3.58;;;30.20;48.00;;;;;;5050946;28;20029;-67
2023/08/28 06:34:56;;;;;;;8.07;3.58;;;30.40;48.30;;;;;;5052498;28;20155;-68
2023/08/28 06:37:22;;;;;;;11.57;3.70;;;30.50;48.30;;;;;;5052546;28;20515;-68
2023/08/28 06:39:48;;;;;;;6.28;3.22;;;30.20;48.10;;;;;;5052438;28;20037;-69
2023/08/28 06:42:14;;;;;;;7.97;4.05;;;30.40;48.10;;;;;;5052162;28;20041;-68
2023/08/28 06:44:41;;;;;;;6.25;3.38;;;30.30;48.10;;;;;;5051409;28;20054;-67
2023/08/28 06:47:07;;;;;;;6.93;3.78;;;30.40;47.90;;;;;;5052143;28;20041;-69
2023/08/28 06:49:33;;;;;;;5.97;4.15;;;30.50;47.80;;;;;;5051832;28;20041;-68
2023/08/28 06:51:59;;;;;;;3.92;2.88;;;30.30;47.70;;;;;;5052021;28;20036;-69
2023/08/28 06:54:25;;;;;;;12.98;4.32;;;30.30;47.60;;;;;;5052036;28;20029;-68
2023/08/28 06:56:52;;;;;;;8.77;3.50;;;30.40;47.50;;;;;;5049829;28;20059;-68
2023/08/28 06:59:18;;;;;;;7.25;3.88;;;30.40;47.30;;;;;;5051637;28;20079;-69
2023/08/28 07:01:44;;;;;;;6.90;4.00;;;30.40;47.20;;;;;;5051919;28;20119;-69
2023/08/28 07:04:09;;;;;;;6.43;3.53;;;30.40;47.20;;;;;;5051783;28;20033;-67
2023/08/28 07:06:35;;;;;;;6.70;3.10;;;30.40;47.60;;;;;;5051866;28;20465;-69
2023/08/28 07:09:01;;;;;;;5.68;3.55;;;30.40;47.90;;;;;;5051603;28;20040;-68
2023/08/28 07:11:28;;;;;;;6.22;4.18;;;30.30;48.10;;;;;;5049592;28;20064;-68
2023/08/28 07:13:57;;;;;;;5.93;3.40;;;30.40;48.10;;;;;;5051495;28;20029;-69
2023/08/28 07:16:23;;;;;;;5.10;3.85;;;30.40;48.20;;;;;;5051659;28;20134;-68
2023/08/28 07:18:49;;;;;;;4.57;3.00;;;30.30;48.20;;;;;;5051608;28;20473;-68
2023/08/28 07:21:15;;;;;;;5.88;3.72;;;30.40;48.20;;;;;;5051141;28;20040;-67
2023/08/28 07:23:42;;;;;;;5.28;3.65;;;30.40;48.10;;;;;;5051251;28;20090;-68
2023/08/28 07:26:08;;;;;;;4.07;3.05;;;30.50;47.90;;;;;;5051531;28;20512;-67
2023/08/28 07:28:34;;;;;;;3.45;3.15;;;30.40;48.10;;;;;;5051524;28;20055;-68
2023/08/28 07:31:02;;;;;;;4.63;3.45;;;30.40;48.30;;;;;;5051388;28;20123;-68
2023/08/28 07:33:28;;;;;;;7.35;3.65;;;30.40;49.00;;;;;;5049738;28;20031;-68
2023/08/28 07:35:54;;;;;;;5.05;3.70;;;30.20;47.80;;;;;;5031364;28;20037;-68
2023/08/28 07:38:20;;;;;;;4.85;3.70;;;30.30;47.90;;;;;;5031172;28;20041;-68
2023/08/28 07:40:47;;;;;;;8.70;4.63;;;30.30;47.60;;;;;;5031670;28;20085;-69
2023/08/28 07:43:13;;;;;;;6.00;3.35;;;30.20;47.20;;;;;;5031101;28;20033;-68
2023/08/28 07:45:39;;;;;;;4.00;3.38;;;30.20;46.80;;;;;;5031393;28;20124;-68
2023/08/28 07:48:06;;;;;;;5.10;4.15;;;30.20;46.40;;;;;;5031339;28;20060;-69
2023/08/28 07:50:32;;;;;;;4.72;3.65;;;30.10;45.90;;;;;;5047447;28;20461;-70
2023/08/28 07:52:58;;;;;;;4.05;3.53;;;30.10;46.10;;;;;;5051185;28;20083;-69
2023/08/28 07:55:24;;;;;;;3.85;3.55;;;30.10;46.10;;;;;;5051045;28;20029;-68
2023/08/28 07:57:51;;;;;;;2.90;2.70;;;30.00;46.30;;;;;;5048950;28;20033;-71
2023/08/28 08:00:20;;;;;;;4.18;3.50;;;30.10;47.00;;;;;;5050995;28;20037;-69
2023/08/28 08:02:48;;;;;;;4.40;3.83;;;30.00;47.20;;;;;;5050865;28;20055;-69
2023/08/28 08:05:14;;;;;;;5.88;3.58;;;30.00;47.40;;;;;;5063145;28;20059;-69
2023/08/28 08:07:40;;;;;;;4.60;4.13;;;30.00;47.50;;;;;;5070879;28;20115;-70
2023/08/28 08:10:10;;;;;;;6.55;3.45;;;29.90;47.10;;;;;;5071029;28;20048;-70
2023/08/28 08:12:41;;;;;;;7.60;3.85;;;30.10;47.60;;;;;;5070870;28;20040;-70
2023/08/28 08:15:07;;;;;;;6.07;3.95;;;29.90;47.20;;;;;;5070786;28;20028;-70
2023/08/28 08:17:37;;;;;;;7.20;3.70;;;30.00;47.80;;;;;;5070843;28;20567;-69
2023/08/28 08:20:09;;;;;;;4.35;3.95;;;30.00;48.00;;;;;;5057440;28;20094;-68
2023/08/28 08:22:40;;;;;;;4.75;3.40;;;29.90;47.40;;;;;;5051195;28;20120;-69
2023/08/28 08:25:07;;;;;;;3.58;3.28;;;29.90;47.40;;;;;;5050622;28;20094;-68
2023/08/28 08:27:34;;;;;;;3.28;2.97;;;29.90;47.50;;;;;;5050699;28;20067;-68
2023/08/28 08:30:00;;;;;;;5.70;3.63;;;30.00;48.10;;;;;;5050699;28;20437;-69
2023/08/28 08:32:26;;;;;;;4.07;3.65;;;30.20;48.10;;;;;;5050936;28;20128;-67
2023/08/28 08:34:52;;;;;;;5.63;4.10;;;30.20;49.70;;;;;;5050708;28;20504;-69
2023/08/28 08:37:18;;;;;;;6.57;3.70;;;30.30;50.00;;;;;;5050974;28;20033;-67
2023/08/28 08:39:44;;;;;;;5.55;4.55;;;30.60;50.50;;;;;;5050811;28;20033;-68
2023/08/28 08:42:11;;;;;;;17.88;15.95;;;30.50;51.60;;;;;;5050446;28;20397;-67
2023/08/28 08:44:39;;;;;;;6.63;4.47;;;30.60;51.80;;;;;;5050489;28;20037;-68
2023/08/28 08:47:06;;;;;;;8.32;4.10;;;30.60;49.60;;;;;;5047582;28;20086;-69
2023/08/28 08:49:32;;;;;;;4.43;3.83;;;30.50;48.50;;;;;;5047900;28;20148;-67
2023/08/28 08:52:07;;;;;;;5.53;3.78;;;30.50;48.40;;;;;;5047693;28;20053;-68
2023/08/28 08:54:39;;;;;;;6.18;3.75;;;30.50;48.90;;;;;;5047979;28;20052;-68
2023/08/28 08:57:21;;;;;;;8.38;4.25;;;30.60;48.30;;;;;;5047832;28;20060;-70
2023/08/28 08:59:49;;;;;;;4.57;4.05;;;30.60;48.70;;;;;;5047940;28;20049;-68
2023/08/28 09:02:15;;;;;;;3.90;3.45;;;30.70;48.40;;;;;;5047987;28;20124;-69
2023/08/28 09:04:42;;;;;;;5.43;3.00;;;30.60;48.10;;;;;;5047983;28;20060;-69
2023/08/28 09:07:09;;;;;;;4.55;3.50;;;30.60;48.00;;;;;;5047909;28;20420;-69
2023/08/28 09:09:36;;;;;;;2.97;2.70;;;30.70;47.80;;;;;;5048199;28;20047;-68
2023/08/28 09:12:02;;;;;;;3.65;2.70;;;30.70;47.90;;;;;;5051523;28;20084;-68
2023/08/28 09:14:31;;;;;;;3.92;3.38;;;30.60;48.10;;;;;;5034573;28;20409;-69
2023/08/28 09:16:56;;;;;;;4.28;2.80;;;30.60;48.20;;;;;;5051653;28;20108;-69
2023/08/28 09:19:23;;;;;;;4.38;3.00;;;30.70;48.30;;;;;;5053291;28;20166;-69
2023/08/28 09:21:49;;;;;;;3.47;3.17;;;30.70;48.40;;;;;;5052409;28;20037;-69
2023/08/28 09:24:21;;;;;;;7.00;3.38;;;30.70;48.60;;;;;;5053617;28;20116;-70
2023/08/28 09:26:52;;;;;;;6.53;3.72;;;30.70;50.60;;;;;;5054141;28;20037;-70
2023/08/28 09:29:22;;;;;;;7.30;4.22;;;30.80;50.40;;;;;;5053648;28;20036;-68
2023/08/28 09:31:48;;;;;;;4.97;3.60;;;31.00;51.00;;;;;;5052634;28;20084;-68
2023/08/28 09:34:14;;;;;;;4.38;3.42;;;31.00;50.50;;;;;;5053350;28;20108;-68
2023/08/28 09:36:40;;;;;;;4.18;3.30;;;31.20;49.80;;;;;;5053152;28;20557;-68
2023/08/28 09:39:06;;;;;;;5.10;3.20;;;31.30;49.70;;;;;;5053054;28;20124;-68
2023/08/28 09:41:47;;;;;;;5.45;3.88;;;31.30;48.80;;;;;;5052450;28;20041;-68
2023/08/28 09:44:19;;;;;;;6.20;4.13;;;31.30;53.40;;;;;;5070446;28;20021;-68
2023/08/28 09:46:46;;;;;;;5.57;4.03;;;31.50;57.60;;;;;;5053221;28;20045;-66
2023/08/28 09:49:13;;;;;;;5.32;4.40;;;31.40;52.00;;;;;;5052877;28;20043;-68
2023/08/28 09:51:41;;;;;;;4.05;3.50;;;31.60;55.60;;;;;;5053498;28;20029;-69
2023/08/28 09:54:09;;;;;;;5.18;3.90;;;31.40;56.20;;;;;;5053186;28;20063;-68
2023/08/28 09:56:36;;;;;;;4.63;3.30;;;31.60;54.20;;;;;;5051617;28;20036;-69
2023/08/28 09:59:03;;;;;;;5.18;3.70;;;31.60;50.90;;;;;;5069628;28;20033;-70
2023/08/28 10:01:36;;;;;;;5.10;3.53;;;31.50;51.00;;;;;;5073057;28;20032;-70
2023/08/28 10:04:09;;;;;;;5.28;3.67;;;31.60;51.50;;;;;;5072986;28;20024;-70
2023/08/28 10:06:40;;;;;;;20.25;5.47;;;31.60;51.60;;;;;;5073143;28;20036;-70
2023/08/28 10:09:13;;;;;;;5.13;3.22;;;31.60;49.90;;;;;;5073272;28;20028;-69
2023/08/28 10:11:39;;;;;;;;;;;31.70;52.20;;;;;;5073276;28;20076;-71
2023/08/28 10:14:06;;;;;;;7.80;3.55;;;31.60;49.80;;;;;;5069332;28;19912;-71
2023/08/28 10:16:37;;;;;;;3.55;2.88;;;31.70;49.60;;;;;;5072789;28;20701;-71
2023/08/28 10:19:10;;;;;;;3.65;3.25;;;31.70;49.30;;;;;;5062679;28;20509;-72
2023/08/28 10:21:38;;;;;;;3.50;3.20;;;31.60;53.50;;;;;;5052890;28;20071;-68
2023/08/28 10:24:05;;;;;;;4.60;3.15;;;31.60;50.60;;;;;;5052789;28;20045;-72
2023/08/28 10:26:33;;;;;;;2.85;2.63;;;31.60;50.60;;;;;;5052598;28;20071;-73
2023/08/28 10:29:00;;;;;;;3.72;2.70;;;31.50;50.50;;;;;;5052520;28;20036;-72
2023/08/28 10:31:29;;;;;;;6.00;3.15;;;31.50;50.20;;;;;;5053115;28;20111;-70
2023/08/28 10:33:56;;;;;;;6.55;3.90;;;31.70;53.70;;;;;;5052548;28;20245;-70
2023/08/28 10:36:24;;;;;;;6.13;3.78;;;32.30;51.60;;;;;;5052419;28;20021;-71
2023/08/28 10:38:52;;;;;;;2.92;2.53;;;32.40;50.50;;;;;;5052157;28;20481;-72
2023/08/28 10:41:20;;;;;;;5.60;2.65;;;32.30;48.00;;;;;;5034033;28;20033;-71
2023/08/28 10:43:48;;;;;;;4.05;3.00;;;32.10;47.70;;;;;;5052265;28;20064;-71
2023/08/28 10:46:15;;;;;;;4.22;3.20;;;32.00;47.00;;;;;;5052614;28;20798;-71
2023/08/28 10:48:41;;;;;;;11.38;3.17;;;31.80;45.80;;;;;;5052280;28;20069;-70
2023/08/28 10:51:11;;;;;;;4.55;2.72;;;32.00;45.90;;;;;;5052162;28;20079;-71
2023/08/28 10:53:38;;;;;;;4.20;2.72;;;31.90;44.50;;;;;;5051778;28;20028;-71
2023/08/28 10:56:06;;;;;;;3.33;2.67;;;31.80;44.10;;;;;;5051683;28;20025;-69
2023/08/28 10:58:37;;;;;;;3.72;3.08;;;31.90;43.90;;;;;;5051852;28;20111;-70
2023/08/28 11:01:23;;;;;;;3.95;2.83;;;31.90;43.60;;;;;;5050611;28;20037;-70
2023/08/28 11:03:59;;;;;;;3.92;2.40;;;31.80;43.30;;;;;;5051606;28;20492;-71
2023/08/28 11:06:43;;;;;;;4.40;2.67;;;31.70;43.10;;;;;;5051809;28;20062;-71
2023/08/28 11:09:27;;;;;;;5.20;2.85;;;31.80;43.00;;;;;;5050869;28;20679;-71
2023/08/28 11:12:02;;;;;;;5.53;3.30;;;31.90;42.70;;;;;;5051521;28;20136;-71
2023/08/28 11:14:38;;;;;;;4.05;3.10;;;31.70;42.30;;;;;;5051582;28;20033;-71
2023/08/28 11:17:08;;;;;;;4.03;2.30;;;31.70;42.00;;;;;;5051646;28;20033;-71
2023/08/28 11:19:53;;;;;;;3.65;2.42;;;31.80;41.90;;;;;;5051319;28;20040;-71
2023/08/28 11:22:28;;;;;;;3.28;2.55;;;31.70;41.80;;;;;;5051546;28;20065;-71
2023/08/28 11:24:55;;;;;;;2.47;2.28;;;31.90;41.60;;;;;;5051474;28;20573;-71
2023/08/28 11:27:33;;;;;;;2.70;2.50;;;31.70;41.60;;;;;;5051399;28;20036;-71
2023/08/28 11:30:04;;;;;;;4.00;2.92;;;31.70;41.50;;;;;;5051687;28;20040;-71
2023/08/28 11:32:32;;;;;;;4.57;2.67;;;31.60;41.70;;;;;;5050310;28;20044;-72
2023/08/28 11:35:07;;;;;;;3.80;2.70;;;31.50;41.50;;;;;;5051016;28;20036;-71
2023/08/28 11:37:36;;;;;;;3.05;2.60;;;31.60;41.50;;;;;;5049780;28;20546;-71
2023/08/28 11:40:06;;;;;;;4.18;2.42;;;31.40;41.30;;;;;;5051285;28;20107;-71
2023/08/28 11:42:33;;;;;;;5.28;3.08;;;31.50;40.50;;;;;;5051224;28;20033;-70
2023/08/28 11:44:59;;;;;;;2.60;1.98;;;31.40;40.90;;;;;;5051070;28;20115;-71
2023/08/28 11:47:27;;;;;;;5.68;2.55;;;31.40;40.40;;;;;;5050891;28;20136;-72
2023/08/28 11:49:56;;;;;;;3.95;3.00;;;31.30;41.00;;;;;;5050425;28;20032;-71
2023/08/28 11:52:23;;;;;;;3.95;2.85;;;31.20;41.10;;;;;;5050523;28;20033;-71
2023/08/28 11:54:50;;;;;;;5.55;2.97;;;31.30;41.00;;;;;;5051068;28;20056;-71
2023/08/28 11:57:19;;;;;;;3.63;2.97;;;31.30;41.10;;;;;;5032033;28;20075;-71
2023/08/28 11:59:47;;;;;;;3.15;2.85;;;31.20;41.30;;;;;;5050990;28;20032;-71
2023/08/28 12:02:14;;;;;;;3.35;2.30;;;31.30;41.80;;;;;;5049660;28;20428;-70
2023/08/28 12:04:43;;;;;;;2.90;2.53;;;31.20;42.10;;;;;;5052638;28;20036;-69
2023/08/28 12:07:23;;;;;;;3.00;2.67;;;31.10;42.30;;;;;;5052736;28;20495;-69
2023/08/28 12:09:51;;;;;;;2.72;2.30;;;31.30;42.50;;;;;;5051070;28;20075;-70
2023/08/28 12:12:17;;;;;;;2.90;2.50;;;31.10;42.80;;;;;;5051158;28;20072;-73
2023/08/28 12:14:44;;;;;;;5.35;2.92;;;31.10;43.70;;;;;;5049466;28;20033;-73
2023/08/28 12:17:17;;;;;;;4.05;2.50;;;31.20;44.70;;;;;;5050777;28;20381;-72
2023/08/28 12:19:44;;;;;;;4.60;3.05;;;31.10;51.90;;;;;;5050555;28;20105;-72
2023/08/28 12:22:11;;;;;;;4.60;2.67;;;31.10;48.20;;;;;;5050657;28;20547;-72
2023/08/28 12:24:46;;;;;;;4.28;3.08;;;31.20;47.00;;;;;;5051024;28;20032;-71
2023/08/28 12:27:14;;;;;;;2.95;2.65;;;31.10;46.20;;;;;;5050677;28;20607;-72
2023/08/28 12:29:41;;;;;;;4.75;3.25;;;31.10;45.80;;;;;;5050544;28;20032;-73
2023/08/28 12:32:18;;;;;;;2.20;2.00;;;31.10;46.00;;;;;;5049660;28;20373;-71
2023/08/28 12:34:45;;;;;;;3.38;2.80;;;31.00;45.80;;;;;;5050609;28;20043;-71
2023/08/28 12:37:13;;;;;;;2.92;2.17;;;31.10;45.80;;;;;;5050671;28;20037;-74
2023/08/28 12:39:51;;;;;;;4.60;2.60;;;31.10;45.80;;;;;;5048881;28;20060;-70
2023/08/28 12:42:18;;;;;;;5.03;2.17;;;31.10;45.80;;;;;;5050456;28;20075;-72
2023/08/28 12:44:44;;;;;;;6.90;2.65;;;31.10;46.00;;;;;;5052615;28;20059;-77
2023/08/28 12:47:17;;;;;;;2.25;2.05;;;31.00;46.00;;;;;;5054797;28;20135;-73
2023/08/28 12:49:43;;;;;;;;;;;31.20;46.10;;;;;;5068285;28;20054;-75
2023/08/28 12:52:10;;;;;;;2.53;2.33;;;31.10;46.20;;;;;;5073373;28;20011;-77